createdAt,value
2023-01-29T00:02:13.341Z,101457.53
2023-01-29T00:04:39.988Z,101458.41
2023-01-29T00:07:06.514Z,101450.63
2023-01-29T00:09:33.220Z,101442.84
2023-01-29T00:11:59.826Z,101441.97
2023-01-29T00:14:29.268Z,101442.75
2023-01-29T00:16:55.940Z,101438.47
2023-01-29T00:19:25.263Z,101441.91
2023-01-29T00:21:51.874Z,101440.25
2023-01-29T00:24:18.455Z,101438.53
2023-01-29T00:26:45.041Z,101436.75
2023-01-29T00:29:11.697Z,101427.22
2023-01-29T00:31:38.434Z,101425.50
2023-01-29T00:34:05.009Z,101422.06
2023-01-29T00:36:31.563Z,101422.03
2023-01-29T00:39:03.532Z,101418.59
2023-01-29T00:41:51.154Z,101418.56
2023-01-29T00:44:36.298Z,101417.69
2023-01-29T00:47:03.597Z,101410.78
2023-01-29T00:49:33.252Z,101415.94
2023-01-29T00:52:18.288Z,101409.06
2023-01-29T00:54:44.825Z,101410.78
2023-01-29T00:57:11.338Z,101408.19
2023-01-29T00:59:38.087Z,101417.72
2023-01-29T01:02:23.103Z,101421.16
2023-01-29T01:04:49.670Z,101421.16
2023-01-29T01:07:16.299Z,101424.59
2023-01-29T01:10:01.542Z,101431.50
2023-01-29T01:12:28.887Z,101430.66
2023-01-29T01:14:55.511Z,101432.41
2023-01-29T01:17:22.267Z,101430.66
2023-01-29T01:19:48.874Z,101428.06
2023-01-29T01:22:15.481Z,101433.28
2023-01-29T01:24:42.062Z,101434.16
2023-01-29T01:27:08.651Z,101426.34
2023-01-29T01:29:35.188Z,101420.28
2023-01-29T01:32:02.058Z,101412.50
2023-01-29T01:34:29.115Z,101410.75
2023-01-29T01:36:56.403Z,101415.06
2023-01-29T01:39:25.008Z,101411.59
2023-01-29T01:41:53.680Z,101412.53
2023-01-29T01:44:51.140Z,101406.47
2023-01-29T01:47:20.693Z,101403.84
2023-01-29T01:49:47.808Z,101401.22
2023-01-29T01:52:16.574Z,101402.97
2023-01-29T01:54:44.330Z,101393.41
2023-01-29T01:57:16.907Z,101396.91
2023-01-29T01:59:49.032Z,101406.44
2023-01-29T02:02:36.121Z,101408.13
2023-01-29T02:05:21.382Z,101406.38
2023-01-29T02:08:09.251Z,101401.19
2023-01-29T02:10:41.658Z,101394.31
2023-01-29T02:13:09.081Z,101386.50
2023-01-29T02:15:35.719Z,101393.41
2023-01-29T02:18:02.422Z,101385.59
2023-01-29T02:20:32.072Z,101377.75
2023-01-29T02:23:14.272Z,101379.50
2023-01-29T02:25:59.533Z,101385.56
2023-01-29T02:28:29.024Z,101389.81
2023-01-29T02:31:39.716Z,101383.63
2023-01-29T02:34:29.373Z,101384.53
2023-01-29T02:37:10.448Z,101386.22
2023-01-29T02:40:06.534Z,101383.63
2023-01-29T02:42:51.403Z,101380.06
2023-01-29T02:45:32.771Z,101385.31
2023-01-29T02:48:02.055Z,101392.16
2023-01-29T02:50:41.837Z,101394.66
2023-01-29T02:53:15.059Z,101394.63
2023-01-29T02:55:51.815Z,101399.84
2023-01-29T02:58:25.446Z,101393.81
2023-01-29T03:00:54.339Z,101394.63
2023-01-29T03:03:23.404Z,101389.44
2023-01-29T03:06:08.760Z,101390.31
2023-01-29T03:08:57.817Z,101401.50
2023-01-29T03:11:27.112Z,101399.84
2023-01-29T03:14:00.274Z,101393.72
2023-01-29T03:16:34.755Z,101392.94
2023-01-29T03:19:13.845Z,101399.06
2023-01-29T03:21:59.201Z,101397.41
2023-01-29T03:25:00.991Z,101396.53
2023-01-29T03:27:51.527Z,101387.94
2023-01-29T03:30:42.440Z,101378.41
2023-01-29T03:33:12.256Z,101377.44
2023-01-29T03:35:48.413Z,101387.84
2023-01-29T03:38:15.915Z,101396.47
2023-01-29T03:40:42.397Z,101402.38
2023-01-29T03:43:18.913Z,101392.94
2023-01-29T03:46:04.776Z,101397.25
2023-01-29T03:48:40.161Z,101401.50
2023-01-29T03:51:34.430Z,101388.50
2023-01-29T03:54:07.896Z,101385.06
2023-01-29T03:56:40.369Z,101372.09
2023-01-29T03:59:24.553Z,101382.38
2023-01-29T04:01:54.562Z,101398.81
2023-01-29T04:04:26.851Z,101386.78
2023-01-29T04:06:57.717Z,101395.28
2023-01-29T04:09:31.461Z,101387.53
2023-01-29T04:12:09.308Z,101372.00
2023-01-29T04:14:37.474Z,101373.75
2023-01-29T04:17:12.446Z,101372.03
2023-01-29T04:19:39.444Z,101365.03
2023-01-29T04:22:14.067Z,101355.50
2023-01-29T04:24:42.556Z,101345.16
2023-01-29T04:27:46.451Z,101341.69
2023-01-29T04:30:28.204Z,101342.50
2023-01-29T04:33:02.164Z,101342.56
2023-01-29T04:35:43.841Z,101335.69
2023-01-29T04:38:16.061Z,101332.16
2023-01-29T04:40:51.009Z,101323.56
2023-01-29T04:43:32.694Z,101324.34
2023-01-29T04:46:15.416Z,101330.38
2023-01-29T04:48:58.213Z,101328.72
2023-01-29T04:51:46.065Z,101326.06
2023-01-29T04:54:50.977Z,101310.56
2023-01-29T04:57:25.510Z,101294.91
2023-01-29T05:00:05.233Z,101295.84
2023-01-29T05:02:33.643Z,101288.91
2023-01-29T05:05:00.442Z,101293.16
2023-01-29T05:07:30.877Z,101282.91
2023-01-29T05:09:57.788Z,101286.38
2023-01-29T05:12:28.708Z,101284.59
2023-01-29T05:15:00.577Z,101276.03
2023-01-29T05:17:27.937Z,101276.91
2023-01-29T05:19:56.451Z,101284.59
2023-01-29T05:22:23.411Z,101284.63
2023-01-29T05:24:50.796Z,101287.22
2023-01-29T05:27:40.148Z,101283.75
2023-01-29T05:30:07.527Z,101275.91
2023-01-29T05:32:34.109Z,101268.19
2023-01-29T05:35:00.692Z,101272.47
2023-01-29T05:37:27.418Z,101272.41
2023-01-29T05:39:53.936Z,101270.69
2023-01-29T05:42:20.743Z,101274.94
2023-01-29T05:44:47.259Z,101275.91
2023-01-29T05:47:13.976Z,101272.44
2023-01-29T05:49:40.460Z,101278.41
2023-01-29T05:52:06.995Z,101274.78
2023-01-29T05:54:33.735Z,101274.91
2023-01-29T05:57:00.246Z,101267.16
2023-01-29T05:59:26.757Z,101269.72
2023-01-29T06:01:53.333Z,101264.56
2023-01-29T06:04:19.933Z,101273.19
2023-01-29T06:06:46.470Z,101280.94
2023-01-29T06:09:13.128Z,101282.75
2023-01-29T06:11:40.089Z,101280.03
2023-01-29T06:14:06.886Z,101285.06
2023-01-29T06:16:33.611Z,101274.84
2023-01-29T06:19:00.457Z,101273.13
2023-01-29T06:21:26.981Z,101286.88
2023-01-29T06:23:54.223Z,101291.16
2023-01-29T06:26:21.002Z,101307.59
2023-01-29T06:28:51.203Z,101317.31
2023-01-29T06:31:38.492Z,101322.63
2023-01-29T06:34:05.926Z,101323.56
2023-01-29T06:36:32.563Z,101335.75
2023-01-29T06:38:59.126Z,101328.97
2023-01-29T06:41:25.915Z,101332.44
2023-01-29T06:43:52.786Z,101330.66
2023-01-29T06:46:19.319Z,101327.22
2023-01-29T06:48:45.847Z,101330.66
2023-01-29T06:51:12.422Z,101324.72
2023-01-29T06:53:39.717Z,101337.69
2023-01-29T06:56:07.404Z,101329.09
2023-01-29T06:58:36.940Z,101361.03
2023-01-29T07:01:25.537Z,101360.19
2023-01-29T07:04:00.119Z,101369.75
2023-01-29T07:06:30.251Z,101367.19
2023-01-29T07:08:58.001Z,101366.38
2023-01-29T07:11:24.544Z,101374.16
2023-01-29T07:13:51.071Z,101375.84
2023-01-29T07:16:19.175Z,101388.00
2023-01-29T07:18:45.879Z,101386.22
2023-01-29T07:21:12.465Z,101393.22
2023-01-29T07:23:38.994Z,101376.78
2023-01-29T07:26:06.450Z,101380.16
2023-01-29T07:28:37.904Z,101385.41
2023-01-29T07:31:05.139Z,101378.59
2023-01-29T07:33:32.146Z,101376.88
2023-01-29T07:35:58.876Z,101367.34
2023-01-29T07:38:25.697Z,101359.59
2023-01-29T07:40:53.410Z,101358.69
2023-01-29T07:43:20.215Z,101350.94
2023-01-29T07:45:46.823Z,101350.09
2023-01-29T07:48:13.773Z,101367.41
2023-01-29T07:50:41.052Z,101357.03
2023-01-29T07:53:07.647Z,101358.78
2023-01-29T07:55:34.320Z,101356.16
2023-01-29T07:58:02.640Z,101357.06
2023-01-29T08:00:31.164Z,101350.16
2023-01-29T08:03:10.869Z,101350.16
2023-01-29T08:05:37.633Z,101340.66
2023-01-29T08:08:07.384Z,101320.78
2023-01-29T08:10:35.372Z,101311.28
2023-01-29T08:13:02.730Z,101306.94
2023-01-29T08:15:29.597Z,101302.56
2023-01-29T08:20:42.855Z,101306.06
2023-01-29T08:23:14.596Z,101302.59
2023-01-29T08:25:41.461Z,101295.69
2023-01-29T08:28:08.706Z,101289.59
2023-01-29T08:30:35.845Z,101298.16
2023-01-29T08:33:04.277Z,101291.22
2023-01-29T08:35:31.660Z,101295.50
2023-01-29T08:38:01.074Z,101300.78
2023-01-29T08:40:28.860Z,101294.78
2023-01-29T08:43:03.595Z,101293.00
2023-01-29T08:45:34.211Z,101296.50
2023-01-29T08:48:00.884Z,101301.75
2023-01-29T08:50:27.536Z,101314.72
2023-01-29T08:52:59.071Z,101302.56
2023-01-29T08:55:26.652Z,101318.16
2023-01-29T08:57:53.247Z,101313.75
2023-01-29T09:00:20.439Z,101319.00
2023-01-29T09:02:47.158Z,101312.03
2023-01-29T09:05:13.819Z,101309.38
2023-01-29T09:07:40.416Z,101299.84
2023-01-29T09:10:08.114Z,101299.03
2023-01-29T09:12:34.764Z,101292.03
2023-01-29T09:15:01.279Z,101279.94
2023-01-29T09:17:27.799Z,101279.88
2023-01-29T09:19:54.404Z,101282.53
2023-01-29T09:22:21.099Z,101294.53
2023-01-29T09:24:47.638Z,101293.78
2023-01-29T09:27:14.250Z,101292.88
2023-01-29T09:29:40.783Z,101279.94
2023-01-29T09:32:07.530Z,101268.66
2023-01-29T09:34:35.182Z,101265.75
2023-01-29T09:37:01.820Z,101276.03
2023-01-29T09:39:28.493Z,101277.75
2023-01-29T09:42:14.893Z,101284.00
2023-01-29T09:45:04.705Z,101285.91
2023-01-29T09:47:34.685Z,101287.59
2023-01-29T09:50:07.538Z,101275.50
2023-01-29T09:53:07.497Z,101265.81
2023-01-29T09:55:40.054Z,101258.75
2023-01-29T09:58:37.530Z,101252.84
2023-01-29T10:01:19.308Z,101236.78
2023-01-29T10:03:57.994Z,101230.94
2023-01-29T10:07:16.173Z,101234.28
2023-01-29T10:10:07.805Z,101227.44
2023-01-29T10:12:49.982Z,101224.47
2023-01-29T10:15:30.660Z,101228.47
2023-01-29T10:18:15.958Z,101225.69
2023-01-29T10:21:39.612Z,101241.09
2023-01-29T10:24:25.085Z,101228.84
2023-01-29T10:26:52.767Z,101231.28
2023-01-29T10:29:22.066Z,101229.38
2023-01-29T10:31:57.098Z,101226.59
2023-01-29T10:34:30.985Z,101229.38
2023-01-29T10:36:57.537Z,101240.00
2023-01-29T10:39:26.445Z,101234.84
2023-01-29T10:42:14.443Z,101241.59
2023-01-29T10:45:15.577Z,101243.66
2023-01-29T10:47:42.521Z,101232.53
2023-01-29T10:50:33.880Z,101227.31
2023-01-29T10:53:22.317Z,101228.84
2023-01-29T10:55:56.815Z,101219.22
2023-01-29T10:58:41.818Z,101208.78
2023-01-29T11:01:10.231Z,101193.09
2023-01-29T11:03:37.069Z,101183.66
2023-01-29T11:06:13.003Z,101174.81
2023-01-29T11:08:51.322Z,101170.28
2023-01-29T11:11:22.264Z,101172.53
2023-01-29T11:13:57.744Z,101167.78
2023-01-29T11:16:25.568Z,101158.34
2023-01-29T11:18:59.494Z,101157.13
2023-01-29T11:21:27.757Z,101139.97
2023-01-29T11:24:17.562Z,101138.66
2023-01-29T11:26:48.045Z,101136.91
2023-01-29T11:29:39.038Z,101130.19
2023-01-29T11:32:13.880Z,101122.75
2023-01-29T11:35:02.319Z,101126.75
2023-01-29T11:37:35.492Z,101119.19
2023-01-29T11:40:22.693Z,101111.19
2023-01-29T11:42:50.348Z,101106.66
2023-01-29T11:45:22.672Z,101113.00
2023-01-29T11:47:56.917Z,101118.22
2023-01-29T11:50:34.013Z,101123.94
2023-01-29T11:53:01.564Z,101122.72
2023-01-29T11:55:49.928Z,101117.47
2023-01-29T11:58:23.268Z,101117.72
2023-01-29T12:00:53.628Z,101114.28
2023-01-29T12:03:33.705Z,101112.59
2023-01-29T12:06:17.752Z,101105.53
2023-01-29T12:08:44.412Z,101095.66
2023-01-29T12:11:35.882Z,101086.50
2023-01-29T12:14:05.418Z,101081.06
2023-01-29T12:17:01.291Z,101086.22
2023-01-29T12:19:46.049Z,101082.09
2023-01-29T12:22:42.902Z,101070.94
2023-01-29T12:25:40.420Z,101059.34
2023-01-29T12:28:20.100Z,101047.97
2023-01-29T12:30:46.560Z,101045.31
2023-01-29T12:33:22.218Z,101039.53
2023-01-29T12:35:57.485Z,101018.88
2023-01-29T12:38:24.298Z,101026.19
2023-01-29T12:40:56.786Z,101037.63
2023-01-29T12:43:42.232Z,101033.09
2023-01-29T12:46:21.637Z,101030.72
2023-01-29T12:48:50.591Z,101025.78
2023-01-29T12:51:20.398Z,101034.34
2023-01-29T12:53:52.905Z,101028.59
2023-01-29T12:56:28.560Z,101031.84
2023-01-29T12:58:57.246Z,101033.59
2023-01-29T13:01:32.039Z,101018.78
2023-01-29T13:04:19.797Z,101016.47
2023-01-29T13:07:03.083Z,101010.72
2023-01-29T13:09:33.266Z,101011.91
2023-01-29T13:12:05.241Z,101010.72
2023-01-29T13:15:00.459Z,101002.00
2023-01-29T13:17:36.196Z,100996.78
2023-01-29T13:20:16.434Z,100988.06
2023-01-29T13:22:46.202Z,100996.81
2023-01-29T13:25:16.789Z,100984.09
2023-01-29T13:27:45.872Z,100980.88
2023-01-29T13:30:25.925Z,100975.69
2023-01-29T13:32:54.864Z,100981.56
2023-01-29T13:35:23.746Z,100984.13
2023-01-29T13:37:53.757Z,100984.22
2023-01-29T13:40:29.653Z,100986.25
2023-01-29T13:42:59.877Z,100988.06
2023-01-29T13:45:35.782Z,100985.34
2023-01-29T13:48:12.041Z,100989.81
2023-01-29T13:50:41.254Z,100985.88
2023-01-29T13:53:20.096Z,101008.06
2023-01-29T13:55:46.669Z,100996.81
2023-01-29T13:58:17.810Z,100995.25
2023-01-29T14:00:44.269Z,100997.09
2023-01-29T14:03:13.752Z,100985.81
2023-01-29T14:06:02.346Z,100984.78
2023-01-29T14:08:34.968Z,100980.69
2023-01-29T14:11:14.987Z,100965.19
2023-01-29T14:13:49.919Z,100967.16
2023-01-29T14:16:16.472Z,100973.97
2023-01-29T14:18:48.977Z,100990.53
2023-01-29T14:21:25.104Z,100985.50
2023-01-29T14:23:53.591Z,100976.56
2023-01-29T14:26:20.210Z,100980.91
2023-01-29T14:29:16.476Z,100962.75
2023-01-29T14:31:52.971Z,100957.56
2023-01-29T14:34:24.133Z,100958.22
2023-01-29T14:36:55.633Z,100956.69
2023-01-29T14:39:24.922Z,100960.91
2023-01-29T14:41:52.642Z,100959.06
2023-01-29T14:44:58.122Z,100963.53
2023-01-29T14:47:27.757Z,100954.19
2023-01-29T14:49:56.340Z,100974.31
2023-01-29T14:52:42.454Z,100972.03
2023-01-29T14:55:19.264Z,100979.75
2023-01-29T14:57:46.111Z,100978.81
2023-01-29T15:00:24.102Z,100975.56
2023-01-29T15:03:01.381Z,100974.59
2023-01-29T15:05:32.824Z,100977.16
2023-01-29T15:08:13.985Z,100980.00
2023-01-29T15:10:46.112Z,100983.44
2023-01-29T15:13:32.711Z,100979.94
2023-01-29T15:16:13.347Z,100993.09
2023-01-29T15:18:42.495Z,100984.50
2023-01-29T15:21:14.384Z,100974.09
2023-01-29T15:23:41.326Z,100976.06
2023-01-29T15:26:16.133Z,100968.94
2023-01-29T15:28:47.141Z,100966.28
2023-01-29T15:31:18.458Z,100949.84
2023-01-29T15:33:47.978Z,100945.59
2023-01-29T15:36:31.603Z,100950.09
2023-01-29T15:39:13.079Z,100956.34
2023-01-29T15:41:39.685Z,100953.03
2023-01-29T15:44:24.759Z,100951.28
2023-01-29T15:46:54.914Z,100953.19
2023-01-29T15:49:39.504Z,100952.31
2023-01-29T15:52:12.108Z,100943.78
2023-01-29T15:54:39.022Z,100950.75
2023-01-29T15:57:06.263Z,100949.84
2023-01-29T15:59:39.025Z,100936.75
2023-01-29T16:02:37.402Z,100944.56
2023-01-29T16:05:07.118Z,100941.06
2023-01-29T16:07:36.030Z,100944.50
2023-01-29T16:10:03.324Z,100940.22
2023-01-29T16:12:32.139Z,100932.28
2023-01-29T16:14:59.569Z,100925.31
2023-01-29T16:17:30.411Z,100920.09
2023-01-29T16:19:59.303Z,100920.13
2023-01-29T16:22:32.069Z,100922.72
2023-01-29T16:25:03.529Z,100920.09
2023-01-29T16:27:31.287Z,100922.72
2023-01-29T16:29:58.027Z,100916.66
2023-01-29T16:32:24.802Z,100907.94
2023-01-29T16:34:57.911Z,100917.50
2023-01-29T16:37:30.333Z,100900.16
2023-01-29T16:39:57.759Z,100905.38
2023-01-29T16:42:29.719Z,100904.47
2023-01-29T16:45:05.307Z,100902.00
2023-01-29T16:47:34.100Z,100898.38
2023-01-29T16:50:36.087Z,100889.69
2023-01-29T16:53:23.108Z,100901.03
2023-01-29T16:55:51.331Z,100894.06
2023-01-29T16:58:28.196Z,100893.22
2023-01-29T17:01:09.846Z,100888.88
2023-01-29T17:03:38.283Z,100886.34
2023-01-29T17:06:12.635Z,100882.88
2023-01-29T17:08:42.459Z,100875.97
2023-01-29T17:11:24.421Z,100885.47
2023-01-29T17:13:51.092Z,100888.09
2023-01-29T17:16:25.712Z,100882.00
2023-01-29T17:18:52.593Z,100888.06
2023-01-29T17:21:19.503Z,100884.56
2023-01-29T17:23:46.232Z,100874.22
2023-01-29T17:26:14.527Z,100886.41
2023-01-29T17:28:42.134Z,100869.91
2023-01-29T17:31:09.250Z,100875.06
2023-01-29T17:33:37.711Z,100876.94
2023-01-29T17:36:04.545Z,100877.72
2023-01-29T17:38:31.879Z,100878.66
2023-01-29T17:41:03.690Z,100864.72
2023-01-29T17:43:30.247Z,100852.56
2023-01-29T17:45:56.943Z,100864.72
2023-01-29T17:48:29.742Z,100874.34
2023-01-29T17:51:03.697Z,100874.44
2023-01-29T17:53:44.302Z,100865.69
2023-01-29T17:56:23.481Z,100843.13
2023-01-29T17:58:50.071Z,100844.88
2023-01-29T18:01:16.631Z,100842.34
2023-01-29T18:03:43.228Z,100859.72
2023-01-29T18:06:12.662Z,100848.44
2023-01-29T18:08:39.974Z,100850.22
2023-01-29T18:11:07.423Z,100851.16
2023-01-29T18:13:36.112Z,100858.09
2023-01-29T18:16:03.000Z,100842.44
2023-01-29T18:18:29.698Z,100849.50
2023-01-29T18:20:56.251Z,100840.78
2023-01-29T18:23:22.905Z,100839.97
2023-01-29T18:25:49.474Z,100835.66
2023-01-29T18:28:17.650Z,100834.75
2023-01-29T18:30:47.189Z,100839.97
2023-01-29T18:33:15.173Z,100840.88
2023-01-29T18:35:44.125Z,100838.19
2023-01-29T18:38:10.782Z,100834.75
2023-01-29T18:40:37.361Z,100833.97
2023-01-29T18:43:04.282Z,100840.84
2023-01-29T18:45:31.325Z,100833.06
2023-01-29T18:47:57.941Z,100830.50
2023-01-29T18:50:26.257Z,100834.88
2023-01-29T18:52:54.112Z,100826.41
2023-01-29T18:55:21.418Z,100815.81
2023-01-29T18:58:27.272Z,100820.97
2023-01-29T19:00:34.858Z,100816.72
2023-01-29T19:03:04.322Z,100810.69
2023-01-29T19:05:33.591Z,100793.38
2023-01-29T19:08:00.231Z,100796.81
2023-01-29T19:10:26.759Z,100792.47
2023-01-29T19:12:53.295Z,100782.94
2023-01-29T19:15:21.978Z,100800.28
2023-01-29T19:17:49.929Z,100767.38
2023-01-29T19:20:19.354Z,100763.09
2023-01-29T19:22:46.039Z,100768.38
2023-01-29T19:25:12.850Z,100770.09
2023-01-29T19:27:39.561Z,100770.97
2023-01-29T19:30:07.400Z,100766.66
2023-01-29T19:32:34.657Z,100763.16
2023-01-29T19:35:01.271Z,100763.19
2023-01-29T19:37:30.489Z,100746.75
2023-01-29T19:39:57.117Z,100761.47
2023-01-29T19:42:23.827Z,100756.25
2023-01-29T19:44:52.064Z,100757.09
2023-01-29T19:47:18.988Z,100760.56
2023-01-29T19:49:45.658Z,100747.59
2023-01-29T19:52:49.892Z,100747.56
2023-01-29T19:55:19.122Z,100741.50
2023-01-29T19:57:46.097Z,100740.72
2023-01-29T20:00:14.827Z,100757.25
2023-01-29T20:02:41.402Z,100752.03
2023-01-29T20:05:12.977Z,100758.16
2023-01-29T20:07:41.146Z,100764.38
2023-01-29T20:10:11.284Z,100758.34
2023-01-29T20:12:38.216Z,100758.38
2023-01-29T20:15:05.101Z,100766.28
2023-01-29T20:17:31.913Z,100770.66
2023-01-29T20:19:58.458Z,100766.47
2023-01-29T20:22:26.236Z,100764.78
2023-01-29T20:24:52.867Z,100756.94
2023-01-29T20:27:19.429Z,100763.06
2023-01-29T20:29:46.663Z,100756.19
2023-01-29T20:32:14.508Z,100753.69
2023-01-29T20:34:41.592Z,100751.03
2023-01-29T20:37:08.132Z,100747.69
2023-01-29T20:39:34.705Z,100745.25
2023-01-29T20:42:01.483Z,100736.50
2023-01-29T20:44:28.047Z,100739.16
2023-01-29T20:46:54.894Z,100734.84
2023-01-29T20:49:21.806Z,100729.50
2023-01-29T20:51:48.380Z,100739.16
2023-01-29T20:54:15.158Z,100731.28
2023-01-29T20:56:47.148Z,100727.81
2023-01-29T20:59:14.351Z,100725.31
2023-01-29T21:01:42.037Z,100714.19
2023-01-29T21:04:08.870Z,100718.53
2023-01-29T21:06:35.470Z,100712.47
2023-01-29T21:09:02.024Z,100705.63
2023-01-29T21:11:28.688Z,100697.75
2023-01-29T21:13:57.787Z,100703.00
2023-01-29T21:16:26.300Z,100677.09
2023-01-29T21:18:57.055Z,100679.63
2023-01-29T21:21:24.058Z,100673.50
2023-01-29T21:23:50.577Z,100660.72
2023-01-29T21:26:17.201Z,100657.09
2023-01-29T21:28:43.756Z,100646.88
2023-01-29T21:31:12.391Z,100652.78
2023-01-29T21:33:38.933Z,100656.16
2023-01-29T21:36:06.208Z,100650.88
2023-01-29T21:38:33.048Z,100642.97
2023-01-29T21:41:01.413Z,100649.00
2023-01-29T21:43:27.998Z,100644.66
2023-01-29T21:45:56.508Z,100639.47
2023-01-29T21:48:23.253Z,100630.81
2023-01-29T21:50:50.353Z,100627.28
2023-01-29T21:53:18.099Z,100619.56
2023-01-29T21:55:45.913Z,100603.88
2023-01-29T21:58:14.413Z,100605.63
2023-01-29T22:00:41.185Z,100593.44
2023-01-29T22:03:07.786Z,100594.44
2023-01-29T22:05:34.802Z,100580.63
2023-01-29T22:08:01.578Z,100563.50
2023-01-29T22:10:28.894Z,100552.13
2023-01-29T22:12:55.695Z,100546.94
2023-01-29T22:15:23.880Z,100546.06
2023-01-29T22:17:50.923Z,100536.56
2023-01-29T22:20:18.945Z,100518.34
2023-01-29T22:22:45.750Z,100520.97
2023-01-29T22:25:12.423Z,100497.63
2023-01-29T22:27:38.998Z,100500.28
2023-01-29T22:30:06.241Z,100494.97
2023-01-29T22:32:33.059Z,100491.59
2023-01-29T22:34:59.687Z,100483.72
2023-01-29T22:37:26.218Z,100473.25
2023-01-29T22:39:52.825Z,100472.34
2023-01-29T22:42:20.733Z,100458.53
2023-01-29T22:44:48.401Z,100462.75
2023-01-29T22:47:15.298Z,100453.19
2023-01-29T22:49:41.839Z,100462.72
2023-01-29T22:52:11.162Z,100447.16
2023-01-29T22:54:42.757Z,100435.00
2023-01-29T22:57:13.712Z,100403.94
2023-01-29T22:59:40.909Z,100429.03
2023-01-29T23:02:08.317Z,100429.94
2023-01-29T23:04:34.935Z,100430.94
2023-01-29T23:07:01.593Z,100425.69
2023-01-29T23:09:28.620Z,100426.50
2023-01-29T23:11:55.163Z,100436.06
2023-01-29T23:14:21.816Z,100428.13
2023-01-29T23:16:48.367Z,100404.75
2023-01-29T23:19:14.921Z,100406.41
2023-01-29T23:21:41.491Z,100421.97
2023-01-29T23:24:08.756Z,100410.69
2023-01-29T23:26:53.844Z,100423.63
2023-01-29T23:29:20.483Z,100422.75
2023-01-29T23:31:47.378Z,100400.25
2023-01-29T23:34:14.274Z,100405.44
2023-01-29T23:36:41.410Z,100404.59
2023-01-29T23:39:08.480Z,100383.72
2023-01-29T23:41:35.329Z,100381.97
2023-01-29T23:44:01.959Z,100377.63
2023-01-29T23:46:28.525Z,100367.13
2023-01-29T23:48:55.060Z,100345.56
2023-01-29T23:51:21.617Z,100313.41
2023-01-29T23:53:48.169Z,100348.91
2023-01-29T23:56:14.818Z,100328.22
2023-01-29T23:58:41.408Z,100333.19
